Time;durP1;ratioP1;P1;durP2;ratioP2;P2;SDS_P1;SDS_P2;PMS_P1;PMS_P2;Temp;Humidity;BMP_temperature;BMP_pressure;BME280_temperature;BME280_humidity;BME280_pressure;Samples;Min_cycle;Max_cycle;Signal;HPM_P1;HPM_P2
2023/06/16 05:00:35;;;;;;;7.00;6.30;;;17.70;97.20;;;;;;1727973;28;20201;-70
2023/06/16 05:01:26;;;;;;;6.63;6.03;;;17.70;97.20;;;;;;1727954;28;20204;-70
2023/06/16 05:02:18;;;;;;;6.70;6.10;;;17.70;97.20;;;;;;1727508;28;20275;-70
2023/06/16 05:03:09;;;;;;;6.40;5.80;;;17.80;97.20;;;;;;1727997;28;20208;-70
2023/06/16 05:04:01;;;;;;;6.70;6.10;;;17.80;97.20;;;;;;1727849;28;20276;-70
2023/06/16 05:04:52;;;;;;;6.43;5.93;;;17.80;97.20;;;;;;1727887;28;20451;-70
2023/06/16 05:05:44;;;;;;;7.10;6.50;;;17.80;97.20;;;;;;1727894;28;20192;-70
2023/06/16 05:06:35;;;;;;;14.73;6.90;;;17.80;97.20;;;;;;1727946;28;20289;-70
2023/06/16 05:07:27;;;;;;;15.40;6.60;;;17.80;97.20;;;;;;1728057;28;20197;-70
2023/06/16 05:08:18;;;;;;;14.30;7.22;;;17.80;97.20;;;;;;1726775;28;20204;-70
2023/06/16 05:09:10;;;;;;;15.63;6.40;;;17.80;97.20;;;;;;1727772;28;20674;-70
2023/06/16 05:10:01;;;;;;;19.05;6.80;;;17.80;97.20;;;;;;1727270;28;20197;-70
2023/06/16 05:10:53;;;;;;;19.13;6.93;;;17.80;97.20;;;;;;1727383;28;20224;-70
2023/06/16 05:11:44;;;;;;;31.13;7.57;;;17.90;97.20;;;;;;1727372;28;20200;-70
2023/06/16 05:12:36;;;;;;;24.58;7.50;;;17.90;97.20;;;;;;1727751;28;20200;-70
2023/06/16 05:13:27;;;;;;;15.15;6.53;;;17.90;97.20;;;;;;1727715;28;20536;-71
2023/06/16 05:14:19;;;;;;;10.70;6.47;;;17.90;97.20;;;;;;1727533;28;20204;-70
2023/06/16 05:15:10;;;;;;;11.60;7.32;;;17.90;97.20;;;;;;1727793;28;20239;-70
2023/06/16 05:16:03;;;;;;;10.20;6.30;;;17.90;97.20;;;;;;1727755;28;20465;-70
2023/06/16 05:16:54;;;;;;;9.10;6.18;;;17.90;97.20;;;;;;1727862;28;20212;-70
2023/06/16 05:17:46;;;;;;;11.23;6.37;;;17.90;97.20;;;;;;1727843;28;20204;-70
2023/06/16 05:18:36;;;;;;;12.23;6.30;;;18.00;97.20;;;;;;1727792;28;20204;-69
2023/06/16 05:19:29;;;;;;;10.10;6.33;;;18.00;97.20;;;;;;1727845;28;20204;-70
2023/06/16 05:20:20;;;;;;;10.88;6.00;;;18.00;97.20;;;;;;1727742;28;20215;-70
2023/06/16 05:21:12;;;;;;;9.55;5.85;;;18.00;97.20;;;;;;1727796;28;20212;-70
2023/06/16 05:22:03;;;;;;;7.00;5.88;;;18.10;97.20;;;;;;1727386;28;20955;-70
2023/06/16 05:22:55;;;;;;;10.57;6.15;;;18.10;97.20;;;;;;1727717;28;20651;-69
2023/06/16 05:23:46;;;;;;;12.02;6.20;;;18.10;97.20;;;;;;1727737;28;20208;-70
2023/06/16 05:24:37;;;;;;;10.10;5.17;;;18.10;97.20;;;;;;1727805;28;20283;-69
2023/06/16 05:25:28;;;;;;;6.57;5.90;;;18.10;97.20;;;;;;1727742;28;20251;-70
2023/06/16 05:26:19;;;;;;;7.47;6.20;;;18.10;97.20;;;;;;1727769;28;20197;-70
2023/06/16 05:27:11;;;;;;;7.00;6.40;;;18.20;97.20;;;;;;1722461;28;20201;-70
2023/06/16 05:28:02;;;;;;;6.60;5.60;;;18.20;97.20;;;;;;1720967;28;20220;-70
2023/06/16 05:28:54;;;;;;;8.63;5.80;;;18.20;97.20;;;;;;1723557;28;20279;-70
2023/06/16 05:29:45;;;;;;;11.13;6.20;;;18.30;97.20;;;;;;1727325;28;20347;-70
2023/06/16 05:30:37;;;;;;;6.27;5.67;;;18.30;97.20;;;;;;1727346;28;20756;-70
2023/06/16 05:31:29;;;;;;;8.70;6.25;;;18.30;97.20;;;;;;1727703;28;20213;-70
2023/06/16 05:32:21;;;;;;;7.53;5.32;;;18.30;97.20;;;;;;1727501;28;20204;-70
2023/06/16 05:33:13;;;;;;;10.02;6.50;;;18.40;97.20;;;;;;1727617;28;20211;-70
2023/06/16 05:34:04;;;;;;;13.60;6.00;;;18.40;97.20;;;;;;1727620;28;20558;-73
2023/06/16 05:34:56;;;;;;;6.28;5.78;;;18.40;97.20;;;;;;1727759;28;20212;-72
2023/06/16 05:35:48;;;;;;;10.13;6.07;;;18.40;97.20;;;;;;1727890;28;20204;-70
2023/06/16 05:36:38;;;;;;;6.75;6.15;;;18.50;97.20;;;;;;1727678;28;20561;-69
2023/06/16 05:37:30;;;;;;;6.57;6.07;;;18.50;97.20;;;;;;1727671;28;20212;-70
2023/06/16 05:38:21;;;;;;;6.03;5.53;;;18.50;97.20;;;;;;1727713;28;20204;-70
2023/06/16 05:39:12;;;;;;;9.10;6.03;;;18.50;97.20;;;;;;1727644;28;20204;-71
2023/06/16 05:40:04;;;;;;;6.78;5.70;;;18.50;97.20;;;;;;1727812;28;20222;-72
2023/06/16 05:40:57;;;;;;;9.50;6.07;;;18.60;97.20;;;;;;1727529;28;20274;-70
2023/06/16 05:41:48;;;;;;;6.38;5.40;;;18.60;97.20;;;;;;1727145;28;20223;-71
2023/06/16 05:42:41;;;;;;;6.15;5.65;;;18.60;97.20;;;;;;1727823;28;20210;-72
2023/06/16 05:43:31;;;;;;;6.45;5.80;;;18.60;97.20;;;;;;1727136;28;20205;-72
2023/06/16 05:44:23;;;;;;;6.60;5.87;;;18.70;97.20;;;;;;1727770;28;20200;-71
2023/06/16 05:45:14;;;;;;;7.05;6.35;;;18.70;97.20;;;;;;1727594;28;20221;-71
2023/06/16 05:46:05;;;;;;;7.40;5.93;;;18.70;97.20;;;;;;1727690;28;20668;-71
2023/06/16 05:46:58;;;;;;;8.07;6.13;;;18.80;97.20;;;;;;1727498;28;20200;-71
2023/06/16 05:47:50;;;;;;;6.82;6.22;;;18.80;97.20;;;;;;1727276;28;20204;-71
2023/06/16 05:48:41;;;;;;;7.22;5.90;;;18.80;97.20;;;;;;1727461;28;20262;-71
2023/06/16 05:49:32;;;;;;;6.37;5.77;;;18.90;97.20;;;;;;1727624;28;20255;-70
2023/06/16 05:50:23;;;;;;;7.20;6.03;;;18.90;97.20;;;;;;1727560;28;20204;-71
2023/06/16 05:51:15;;;;;;;6.13;5.63;;;18.90;97.20;;;;;;1727620;28;20200;-72
2023/06/16 05:52:07;;;;;;;6.97;6.28;;;18.90;97.20;;;;;;1727151;28;20201;-71
2023/06/16 05:52:59;;;;;;;10.80;5.93;;;18.90;97.20;;;;;;1727492;28;20200;-71
2023/06/16 05:53:49;;;;;;;8.68;5.63;;;18.90;97.20;;;;;;1727199;28;20409;-71
2023/06/16 05:54:41;;;;;;;9.07;6.70;;;18.90;97.20;;;;;;1727643;28;20282;-71
2023/06/16 05:55:32;;;;;;;6.13;5.63;;;18.90;97.20;;;;;;1727630;28;20713;-71
2023/06/16 05:56:24;;;;;;;7.20;6.17;;;19.00;97.20;;;;;;1727749;28;20563;-72
2023/06/16 05:57:15;;;;;;;7.10;5.70;;;19.00;97.20;;;;;;1727200;28;20258;-71
2023/06/16 05:58:07;;;;;;;10.50;5.80;;;19.00;97.20;;;;;;1727761;28;20243;-71
2023/06/16 05:58:58;;;;;;;6.63;5.55;;;19.10;97.20;;;;;;1727384;28;20451;-72
2023/06/16 05:59:50;;;;;;;9.43;6.23;;;19.10;97.20;;;;;;1727491;28;20189;-71
2023/06/16 06:00:41;;;;;;;6.22;5.72;;;19.10;97.20;;;;;;1727524;28;20220;-71
2023/06/16 06:01:32;;;;;;;6.17;5.60;;;19.20;97.20;;;;;;1727640;28;20288;-71
2023/06/16 06:02:25;;;;;;;6.90;5.40;;;19.20;97.20;;;;;;1727221;28;20649;-71
2023/06/16 06:03:17;;;;;;;6.53;5.93;;;19.20;97.20;;;;;;1727523;28;20204;-71
2023/06/16 06:04:11;;;;;;;10.63;5.97;;;19.30;97.20;;;;;;1727632;28;20208;-71
2023/06/16 06:05:02;;;;;;;9.88;6.38;;;19.30;97.20;;;;;;1727603;28;20258;-71
2023/06/16 06:05:55;;;;;;;7.40;6.07;;;19.30;97.20;;;;;;1727745;28;20223;-71
2023/06/16 06:06:48;;;;;;;6.90;6.28;;;19.30;97.20;;;;;;1727800;28;20227;-71
2023/06/16 06:07:39;;;;;;;7.15;5.97;;;19.30;97.20;;;;;;1732105;28;20199;-71
2023/06/16 06:08:30;;;;;;;6.03;5.53;;;19.40;97.20;;;;;;1733905;28;20204;-71
2023/06/16 06:09:21;;;;;;;7.95;6.13;;;19.40;97.20;;;;;;1734262;28;20484;-71
2023/06/16 06:10:13;;;;;;;6.87;6.27;;;19.40;97.20;;;;;;1734300;28;20211;-71
2023/06/16 06:11:06;;;;;;;7.13;5.70;;;19.40;97.20;;;;;;1734436;28;20521;-71
2023/06/16 06:11:57;;;;;;;7.13;6.47;;;19.40;97.20;;;;;;1727982;28;20192;-70
2023/06/16 06:12:49;;;;;;;7.18;6.13;;;19.40;97.20;;;;;;1727608;28;20200;-70
2023/06/16 06:13:40;;;;;;;6.47;5.90;;;19.50;97.20;;;;;;1727641;28;20200;-71
2023/06/16 06:14:31;;;;;;;6.97;6.38;;;19.50;97.20;;;;;;1727666;28;20685;-71
2023/06/16 06:15:23;;;;;;;7.33;5.93;;;19.50;97.20;;;;;;1727578;28;20674;-71
2023/06/16 06:16:13;;;;;;;11.48;6.53;;;19.50;97.20;;;;;;1727547;28;20207;-70
2023/06/16 06:17:06;;;;;;;7.10;5.80;;;19.60;97.20;;;;;;1727716;28;20207;-70
2023/06/16 06:17:58;;;;;;;5.85;5.07;;;19.60;97.20;;;;;;1727560;28;20200;-71
2023/06/16 06:18:50;;;;;;;8.65;5.88;;;19.70;97.20;;;;;;1727646;28;20208;-71
2023/06/16 06:19:40;;;;;;;8.73;5.97;;;19.70;97.20;;;;;;1727547;28;20686;-70
2023/06/16 06:20:32;;;;;;;6.77;5.63;;;19.70;97.20;;;;;;1727558;28;20694;-70
2023/06/16 06:21:23;;;;;;;5.95;5.35;;;19.70;97.20;;;;;;1727557;28;20204;-70
2023/06/16 06:22:15;;;;;;;6.68;5.88;;;19.80;97.20;;;;;;1727280;28;20207;-70
2023/06/16 06:23:06;;;;;;;8.30;5.95;;;19.80;97.20;;;;;;1727590;28;20614;-70
2023/06/16 06:23:57;;;;;;;6.40;5.90;;;19.80;97.20;;;;;;1727437;28;20250;-70
2023/06/16 06:24:48;;;;;;;5.97;5.47;;;19.80;97.20;;;;;;1727563;28;20205;-70
2023/06/16 06:25:40;;;;;;;7.10;5.80;;;19.80;97.20;;;;;;1727303;28;20568;-71
2023/06/16 06:26:32;;;;;;;6.45;5.80;;;19.80;97.20;;;;;;1720909;28;20255;-70
2023/06/16 06:27:22;;;;;;;6.13;5.53;;;19.80;97.20;;;;;;1720725;28;20663;-70
2023/06/16 06:28:14;;;;;;;7.67;5.70;;;19.90;97.20;;;;;;1720848;28;20659;-70
2023/06/16 06:29:05;;;;;;;6.90;5.57;;;19.90;97.20;;;;;;1720710;28;20197;-70
2023/06/16 06:29:57;;;;;;;7.25;6.55;;;19.90;97.20;;;;;;1720749;28;20197;-73
2023/06/16 06:30:47;;;;;;;6.38;5.75;;;19.90;97.20;;;;;;1720651;28;20616;-72
2023/06/16 06:31:40;;;;;;;8.80;6.00;;;19.90;97.20;;;;;;1720734;28;20189;-72
2023/06/16 06:32:31;;;;;;;7.20;5.22;;;20.00;97.20;;;;;;1720482;28;20201;-72
2023/06/16 06:33:24;;;;;;;5.90;5.40;;;20.00;97.20;;;;;;1720867;28;20276;-72
2023/06/16 06:34:15;;;;;;;5.40;4.90;;;20.10;97.20;;;;;;1720649;28;20209;-71
2023/06/16 06:35:07;;;;;;;6.97;6.13;;;20.10;97.20;;;;;;1720818;28;20206;-72
2023/06/16 06:35:57;;;;;;;6.50;5.90;;;20.10;97.20;;;;;;1720693;28;20201;-69
2023/06/16 06:36:50;;;;;;;6.47;5.47;;;20.10;97.20;;;;;;1720746;28;20201;-69
2023/06/16 06:37:41;;;;;;;8.20;5.88;;;20.10;97.20;;;;;;1720826;28;20292;-71
2023/06/16 06:38:32;;;;;;;9.90;5.77;;;20.20;97.20;;;;;;1720805;28;20205;-72
2023/06/16 06:39:23;;;;;;;7.30;5.85;;;20.20;97.20;;;;;;1720842;28;20201;-72
2023/06/16 06:40:15;;;;;;;6.57;5.90;;;20.20;97.20;;;;;;1724392;28;20184;-72
2023/06/16 06:41:06;;;;;;;6.13;5.43;;;20.30;97.20;;;;;;1727149;28;20204;-73
2023/06/16 06:41:57;;;;;;;13.17;6.30;;;20.30;97.20;;;;;;1726390;28;20201;-73
2023/06/16 06:42:48;;;;;;;6.13;5.68;;;20.30;97.20;;;;;;1726772;28;20255;-73
2023/06/16 06:43:40;;;;;;;9.45;5.40;;;20.30;97.20;;;;;;1727069;28;20219;-73
2023/06/16 06:44:31;;;;;;;6.50;5.90;;;20.40;97.20;;;;;;1727477;28;20212;-73
2023/06/16 06:45:22;;;;;;;5.57;4.73;;;20.40;97.20;;;;;;1727551;28;20204;-73
2023/06/16 06:46:13;;;;;;;6.03;5.28;;;20.40;97.20;;;;;;1727414;28;20227;-73
2023/06/16 06:47:05;;;;;;;10.60;6.10;;;20.40;97.20;;;;;;1727421;28;20202;-73
2023/06/16 06:47:56;;;;;;;7.22;5.68;;;20.50;97.20;;;;;;1727440;28;20208;-73
2023/06/16 06:48:49;;;;;;;8.40;5.27;;;20.50;97.20;;;;;;1727523;28;20204;-73
2023/06/16 06:49:41;;;;;;;8.02;5.82;;;20.60;97.20;;;;;;1727447;28;20209;-72
2023/06/16 06:50:32;;;;;;;8.32;5.32;;;20.60;97.20;;;;;;1726670;28;20221;-72
2023/06/16 06:51:23;;;;;;;6.55;5.93;;;20.70;97.20;;;;;;1727168;28;20219;-73
2023/06/16 06:52:15;;;;;;;6.80;6.20;;;20.70;97.20;;;;;;1727143;28;20200;-73
2023/06/16 06:53:05;;;;;;;6.47;5.22;;;20.70;97.20;;;;;;1727475;28;20630;-73
2023/06/16 06:53:57;;;;;;;6.03;5.30;;;20.80;97.20;;;;;;1727047;28;20200;-73
2023/06/16 06:54:48;;;;;;;6.40;5.50;;;20.80;97.20;;;;;;1727447;28;20721;-73
2023/06/16 06:55:39;;;;;;;6.03;5.43;;;20.80;97.20;;;;;;1727500;28;20650;-72
2023/06/16 06:56:30;;;;;;;10.35;5.60;;;20.80;97.20;;;;;;1726893;28;20205;-73
2023/06/16 06:57:22;;;;;;;38.90;9.53;;;20.90;97.20;;;;;;1726969;28;20280;-73
2023/06/16 06:58:13;;;;;;;7.03;5.15;;;20.90;97.20;;;;;;1727460;28;20204;-73
2023/06/16 06:59:05;;;;;;;6.75;5.75;;;20.90;97.20;;;;;;1727533;28;20257;-72
2023/06/16 06:59:55;;;;;;;6.03;5.35;;;21.00;97.20;;;;;;1727409;28;20671;-73
2023/06/16 07:00:47;;;;;;;13.10;5.70;;;21.00;97.20;;;;;;1727397;28;20592;-73
2023/06/16 07:01:38;;;;;;;9.70;5.97;;;21.00;97.20;;;;;;1727451;28;20208;-70
2023/06/16 07:02:30;;;;;;;5.87;5.23;;;21.10;97.20;;;;;;1727198;28;20215;-70
2023/06/16 07:03:20;;;;;;;20.77;6.38;;;21.10;97.20;;;;;;1727378;28;20205;-70
2023/06/16 07:04:13;;;;;;;12.03;6.40;;;21.20;97.20;;;;;;1727313;28;20283;-70
2023/06/16 07:05:05;;;;;;;11.60;6.07;;;21.20;97.20;;;;;;1727401;28;20407;-70
2023/06/16 07:05:57;;;;;;;7.95;6.00;;;21.30;97.20;;;;;;1727309;28;20218;-70
2023/06/16 07:06:47;;;;;;;32.30;7.60;;;21.30;97.20;;;;;;1727330;28;20208;-70
2023/06/16 07:07:39;;;;;;;10.83;5.87;;;21.40;97.20;;;;;;1727347;28;20200;-71
2023/06/16 07:08:30;;;;;;;6.65;5.53;;;21.40;97.20;;;;;;1727178;28;20200;-71
2023/06/16 07:09:22;;;;;;;6.10;5.50;;;21.50;97.20;;;;;;1727390;28;20204;-70
2023/06/16 07:10:13;;;;;;;8.77;5.78;;;21.50;97.20;;;;;;1727300;28;20212;-70
2023/06/16 07:11:04;;;;;;;6.33;5.73;;;21.50;97.20;;;;;;1727393;28;20204;-70
2023/06/16 07:11:55;;;;;;;6.25;5.63;;;21.60;97.20;;;;;;1727057;28;20615;-70
2023/06/16 07:12:47;;;;;;;6.23;5.60;;;21.60;97.20;;;;;;1727391;28;20197;-70
2023/06/16 07:13:37;;;;;;;6.53;5.85;;;21.60;97.20;;;;;;1727368;28;20205;-70
2023/06/16 07:14:30;;;;;;;5.87;4.90;;;21.60;97.20;;;;;;1727288;28;20208;-70
2023/06/16 07:15:21;;;;;;;11.43;5.50;;;21.60;97.20;;;;;;1727348;28;20701;-71
2023/06/16 07:16:13;;;;;;;6.50;5.90;;;21.70;97.20;;;;;;1727360;28;20561;-70
2023/06/16 07:17:04;;;;;;;17.70;6.30;;;21.70;97.20;;;;;;1727243;28;20208;-70
2023/06/16 07:17:55;;;;;;;13.98;6.85;;;21.70;97.20;;;;;;1727231;28;20275;-71
2023/06/16 07:18:46;;;;;;;11.02;5.70;;;21.80;97.20;;;;;;1727257;28;20693;-70
2023/06/16 07:19:39;;;;;;;19.17;7.00;;;21.80;97.20;;;;;;1727331;28;20561;-71
2023/06/16 07:20:30;;;;;;;11.77;6.35;;;21.90;97.20;;;;;;1727232;28;20670;-70
2023/06/16 07:21:22;;;;;;;15.40;6.87;;;22.00;97.20;;;;;;1727279;28;20565;-70
2023/06/16 07:22:12;;;;;;;13.05;6.60;;;22.00;97.20;;;;;;1726999;28;20213;-73
2023/06/16 07:23:04;;;;;;;25.90;7.20;;;22.10;97.20;;;;;;1727104;28;20228;-73
2023/06/16 07:23:55;;;;;;;9.38;5.68;;;22.10;97.20;;;;;;1727349;28;20604;-73
2023/06/16 07:24:47;;;;;;;6.60;5.40;;;22.20;97.20;;;;;;1727429;28;20250;-73
2023/06/16 07:25:38;;;;;;;6.25;5.45;;;22.20;97.20;;;;;;1727468;28;20224;-73
2023/06/16 07:26:29;;;;;;;8.33;6.03;;;22.30;97.20;;;;;;1727379;28;20204;-72
2023/06/16 07:27:20;;;;;;;9.05;5.28;;;22.30;97.20;;;;;;1727375;28;20200;-73
2023/06/16 07:28:12;;;;;;;6.20;5.33;;;22.40;97.20;;;;;;1727431;28;20200;-73
2023/06/16 07:29:03;;;;;;;6.88;6.05;;;22.40;97.20;;;;;;1727514;28;20291;-72
2023/06/16 07:29:54;;;;;;;10.50;6.60;;;22.40;97.20;;;;;;1727377;28;20206;-73
2023/06/16 07:30:45;;;;;;;11.55;5.80;;;22.40;97.20;;;;;;1727291;28;20471;-74
2023/06/16 07:31:37;;;;;;;6.33;5.73;;;22.50;97.20;;;;;;1727349;28;20207;-72
2023/06/16 07:32:27;;;;;;;6.22;4.93;;;22.50;97.20;;;;;;1727068;28;20236;-72
2023/06/16 07:33:19;;;;;;;9.50;5.70;;;22.60;97.20;;;;;;1727301;28;20196;-73
2023/06/16 07:34:10;;;;;;;6.35;5.57;;;22.60;97.20;;;;;;1727332;28;20200;-73
2023/06/16 07:35:03;;;;;;;6.50;5.50;;;22.60;97.20;;;;;;1727419;28;20204;-73
2023/06/16 07:35:54;;;;;;;6.03;5.43;;;22.70;97.20;;;;;;1727311;28;20200;-72
2023/06/16 07:36:45;;;;;;;6.10;5.50;;;22.70;97.20;;;;;;1727197;28;20201;-73
2023/06/16 07:37:36;;;;;;;5.97;5.47;;;22.70;97.20;;;;;;1727403;28;20658;-72
2023/06/16 07:38:28;;;;;;;7.23;5.33;;;22.70;97.20;;;;;;1727329;28;20682;-72
2023/06/16 07:39:21;;;;;;;7.30;6.07;;;22.70;97.20;;;;;;1727288;28;20204;-72
2023/06/16 07:40:14;;;;;;;6.63;5.45;;;22.70;97.20;;;;;;1727219;28;20279;-73
2023/06/16 07:41:06;;;;;;;7.32;5.47;;;22.80;97.20;;;;;;1727332;28;20208;-73
2023/06/16 07:41:57;;;;;;;6.75;5.95;;;22.80;97.20;;;;;;1727028;28;20607;-72
2023/06/16 07:42:48;;;;;;;6.20;5.32;;;22.80;97.20;;;;;;1727265;28;20197;-73
2023/06/16 07:43:40;;;;;;;6.50;5.07;;;22.80;97.20;;;;;;1727231;28;20207;-72
2023/06/16 07:44:31;;;;;;;7.60;5.57;;;22.80;97.20;;;;;;1727313;28;20211;-73
2023/06/16 07:45:22;;;;;;;5.27;4.77;;;22.80;97.20;;;;;;1727378;28;20659;-73
2023/06/16 07:46:13;;;;;;;7.93;6.10;;;22.90;97.20;;;;;;1727218;28;20230;-73
2023/06/16 07:47:05;;;;;;;7.43;5.80;;;22.90;97.20;;;;;;1727345;28;20775;-74
2023/06/16 07:47:56;;;;;;;7.85;5.88;;;23.00;97.20;;;;;;1727203;28;20505;-73
2023/06/16 07:48:48;;;;;;;5.20;4.70;;;23.00;97.20;;;;;;1727324;28;20251;-73
2023/06/16 07:49:39;;;;;;;9.88;5.30;;;23.10;97.20;;;;;;1727268;28;20240;-72
2023/06/16 07:50:32;;;;;;;12.10;5.97;;;23.20;97.20;;;;;;1727223;28;20204;-73
2023/06/16 07:51:22;;;;;;;6.85;4.53;;;23.20;97.20;;;;;;1726929;28;20574;-72
2023/06/16 07:52:14;;;;;;;5.70;4.37;;;23.30;97.20;;;;;;1726924;28;20560;-73
2023/06/16 07:53:05;;;;;;;9.98;4.60;;;23.30;97.20;;;;;;1727867;28;20205;-72
2023/06/16 07:53:56;;;;;;;11.13;5.00;;;23.40;97.20;;;;;;1728416;28;20207;-72
2023/06/16 07:54:47;;;;;;;13.18;5.07;;;23.50;97.20;;;;;;1728467;28;20200;-73
2023/06/16 07:55:39;;;;;;;7.47;4.30;;;23.50;97.20;;;;;;1728419;28;20193;-73
2023/06/16 07:56:30;;;;;;;10.70;4.93;;;23.50;97.20;;;;;;1728482;28;20200;-73
2023/06/16 07:57:21;;;;;;;7.63;5.03;;;23.60;97.20;;;;;;1728573;28;20251;-73
2023/06/16 07:58:12;;;;;;;9.10;5.10;;;23.60;97.20;;;;;;1728551;28;20635;-73
2023/06/16 07:59:04;;;;;;;7.53;4.00;;;23.70;97.20;;;;;;1728677;28;20193;-72
2023/06/16 07:59:55;;;;;;;8.68;4.53;;;23.70;97.20;;;;;;1728570;28;20207;-72
2023/06/16 08:00:47;;;;;;;29.67;7.67;;;23.80;97.20;;;;;;1728431;28;20231;-70
2023/06/16 08:01:37;;;;;;;11.27;5.40;;;23.80;97.20;;;;;;1728455;28;20454;-70
2023/06/16 08:02:29;;;;;;;5.63;4.60;;;23.90;97.20;;;;;;1728253;28;20205;-71
2023/06/16 08:03:21;;;;;;;7.05;4.35;;;23.90;97.20;;;;;;1728589;28;20224;-70
2023/06/16 08:04:12;;;;;;;12.23;5.63;;;23.90;97.20;;;;;;1728418;28;20666;-70
2023/06/16 08:05:04;;;;;;;14.90;5.18;;;24.00;97.20;;;;;;1728209;28;20197;-71
2023/06/16 08:05:57;;;;;;;11.45;5.10;;;24.00;97.20;;;;;;1728524;28;20210;-71
2023/06/16 08:06:47;;;;;;;13.85;5.05;;;24.10;97.20;;;;;;1721667;28;20570;-71
2023/06/16 08:07:39;;;;;;;12.67;6.03;;;24.10;97.20;;;;;;1721713;28;20567;-71
2023/06/16 08:08:32;;;;;;;54.83;10.23;;;24.10;97.20;;;;;;1721680;28;20236;-71
2023/06/16 08:09:24;;;;;;;100.45;15.15;;;24.20;97.20;;;;;;1721608;28;20263;-71
2023/06/16 08:10:19;;;;;;;97.18;17.58;;;24.20;97.20;;;;;;1721662;28;20741;-70
2023/06/16 08:11:11;;;;;;;6.90;4.25;;;24.30;97.20;;;;;;1721577;28;20205;-70
2023/06/16 08:12:02;;;;;;;20.25;6.55;;;24.30;97.20;;;;;;1721387;28;20205;-70
2023/06/16 08:12:54;;;;;;;8.65;4.60;;;24.40;97.20;;;;;;1721614;28;20212;-70
2023/06/16 08:13:45;;;;;;;50.30;9.80;;;24.40;97.20;;;;;;1721579;28;20593;-71
2023/06/16 08:14:36;;;;;;;95.33;17.80;;;24.50;97.20;;;;;;1721581;28;20561;-71
2023/06/16 08:15:27;;;;;;;33.28;7.10;;;24.50;97.20;;;;;;1721610;28;20220;-70
2023/06/16 08:16:19;;;;;;;4.67;4.27;;;24.50;97.20;;;;;;1721737;28;20200;-70
2023/06/16 08:17:10;;;;;;;11.65;4.60;;;24.60;97.20;;;;;;1721606;28;20209;-70
2023/06/16 08:18:02;;;;;;;9.85;4.35;;;24.60;97.20;;;;;;1721501;28;20197;-70
2023/06/16 08:18:55;;;;;;;13.30;5.47;;;24.60;97.20;;;;;;1721583;28;20264;-71
2023/06/16 08:19:46;;;;;;;36.72;9.10;;;24.70;97.20;;;;;;1726546;28;20197;-70
2023/06/16 08:20:37;;;;;;;8.50;4.93;;;24.70;97.20;;;;;;1728296;28;20592;-72
2023/06/16 08:21:30;;;;;;;10.20;4.27;;;24.80;97.20;;;;;;1728406;28;20446;-72
2023/06/16 08:22:21;;;;;;;6.32;4.20;;;24.90;97.20;;;;;;1728105;28;20254;-73
2023/06/16 08:23:13;;;;;;;5.37;4.27;;;24.90;97.20;;;;;;1728320;28;20247;-73
2023/06/16 08:24:04;;;;;;;13.27;5.18;;;25.00;97.20;;;;;;1728484;28;20200;-74
2023/06/16 08:24:55;;;;;;;4.90;3.90;;;25.00;97.20;;;;;;1728434;28;20197;-73
2023/06/16 08:25:47;;;;;;;32.85;8.50;;;25.10;97.20;;;;;;1728413;28;20470;-73
2023/06/16 08:26:39;;;;;;;13.07;5.13;;;25.20;97.20;;;;;;1728452;28;20658;-73
2023/06/16 08:27:30;;;;;;;8.07;3.93;;;25.20;97.20;;;;;;1728307;28;20580;-73
2023/06/16 08:28:22;;;;;;;7.83;4.37;;;25.30;97.20;;;;;;1728407;28;20444;-73
2023/06/16 08:29:14;;;;;;;5.45;3.95;;;25.30;97.20;;;;;;1728297;28;20454;-72
2023/06/16 08:30:09;;;;;;;6.53;3.85;;;25.30;97.20;;;;;;1728119;28;20646;-71
2023/06/16 08:31:00;;;;;;;12.50;5.03;;;25.40;97.20;;;;;;1724851;28;20225;-73
2023/06/16 08:31:51;;;;;;;49.83;10.23;;;25.40;97.20;;;;;;1728031;28;20199;-73
2023/06/16 08:32:42;;;;;;;9.15;4.05;;;25.40;97.20;;;;;;1728373;28;20439;-72
2023/06/16 08:33:34;;;;;;;10.00;5.00;;;25.50;97.20;;;;;;1728227;28;20196;-72
2023/06/16 08:34:25;;;;;;;5.63;4.80;;;25.50;97.20;;;;;;1728362;28;20211;-73
2023/06/16 08:35:17;;;;;;;7.03;5.03;;;25.60;97.20;;;;;;1728229;28;20296;-72
2023/06/16 08:36:08;;;;;;;8.57;4.20;;;25.60;97.20;;;;;;1728265;28;20208;-72
2023/06/16 08:37:02;;;;;;;9.17;4.17;;;25.70;97.20;;;;;;1728336;28;20204;-72
2023/06/16 08:37:53;;;;;;;32.45;7.70;;;25.70;97.20;;;;;;1728204;28;20219;-72
2023/06/16 08:38:45;;;;;;;44.27;10.70;;;25.80;97.20;;;;;;1728288;28;20200;-73
2023/06/16 08:39:35;;;;;;;37.43;8.23;;;25.80;97.20;;;;;;1728139;28;20299;-72
2023/06/16 08:40:27;;;;;;;23.13;7.37;;;25.90;97.20;;;;;;1728276;28;20447;-72
2023/06/16 08:41:19;;;;;;;6.60;4.50;;;26.00;97.20;;;;;;1728251;28;20228;-73
2023/06/16 08:42:11;;;;;;;9.40;4.23;;;26.10;97.20;;;;;;1727985;28;20738;-73
2023/06/16 08:43:05;;;;;;;73.85;13.45;;;26.10;97.20;;;;;;1728238;28;20443;-73
2023/06/16 08:43:59;;;;;;;78.87;15.70;;;26.20;97.20;;;;;;1728137;28;20200;-72
2023/06/16 08:44:51;;;;;;;56.20;11.98;;;26.20;97.20;;;;;;1727880;28;20444;-72
2023/06/16 08:45:45;;;;;;;42.47;11.30;;;26.30;97.20;;;;;;1728140;28;20196;-72
2023/06/16 08:46:36;;;;;;;37.75;10.25;;;26.40;97.20;;;;;;1728164;28;20208;-73
2023/06/16 08:47:28;;;;;;;24.65;7.68;;;26.50;97.20;;;;;;1728231;28;20243;-72
2023/06/16 08:48:19;;;;;;;12.90;5.07;;;26.50;97.20;;;;;;1728289;28;20212;-72
2023/06/16 08:49:14;;;;;;;7.57;4.53;;;26.60;97.20;;;;;;1728343;28;20511;-72
2023/06/16 08:50:07;;;;;;;4.88;4.35;;;26.60;97.20;;;;;;1728313;28;20240;-72
2023/06/16 08:51:00;;;;;;;13.27;6.10;;;26.70;97.20;;;;;;1728180;28;20224;-72
2023/06/16 08:51:52;;;;;;;17.67;5.30;;;26.70;97.20;;;;;;1727912;28;20504;-72
2023/06/16 08:52:47;;;;;;;45.67;9.80;;;26.70;97.20;;;;;;1728403;28;20498;-72
2023/06/16 08:53:40;;;;;;;17.58;6.18;;;26.80;97.20;;;;;;1728134;28;20739;-72
2023/06/16 08:54:37;;;;;;;10.00;5.27;;;26.80;97.20;;;;;;1728258;28;20200;-73
2023/06/16 08:55:30;;;;;;;7.20;6.10;;;26.80;97.20;;;;;;1728225;28;20447;-72
2023/06/16 08:56:22;;;;;;;10.63;6.07;;;26.80;97.20;;;;;;1728151;28;20526;-73
2023/06/16 08:57:14;;;;;;;12.97;7.20;;;26.80;97.20;;;;;;1728185;28;20945;-72
2023/06/16 08:58:09;;;;;;;14.87;7.20;;;26.90;97.20;;;;;;1728190;28;20498;-72
2023/06/16 08:59:01;;;;;;;19.55;7.88;;;26.90;97.20;;;;;;1727855;28;20452;-72
2023/06/16 08:59:56;;;;;;;13.47;5.00;;;27.00;97.20;;;;;;1728114;28;20200;-72
2023/06/16 09:00:48;;;;;;;8.70;4.80;;;27.00;97.20;;;;;;1728115;28;20480;-72
2023/06/16 09:01:40;;;;;;;5.40;4.43;;;27.10;97.20;;;;;;1728137;28;21008;-73
2023/06/16 09:02:31;;;;;;;4.50;4.10;;;27.10;97.20;;;;;;1727873;28;20452;-72
2023/06/16 09:03:25;;;;;;;12.10;5.27;;;27.10;97.20;;;;;;1727991;28;20280;-72
2023/06/16 09:04:16;;;;;;;15.37;5.67;;;27.10;97.20;;;;;;1727938;28;20937;-72
2023/06/16 09:05:08;;;;;;;10.03;5.47;;;27.20;97.20;;;;;;1727416;28;20447;-72
2023/06/16 09:06:00;;;;;;;27.27;6.90;;;27.20;97.20;;;;;;1728139;28;20197;-72
2023/06/16 09:06:56;;;;;;;18.27;7.33;;;27.30;97.20;;;;;;1727875;28;20451;-72
2023/06/16 09:07:49;;;;;;;18.30;7.30;;;27.40;97.20;;;;;;1728108;28;20439;-73
2023/06/16 09:08:41;;;;;;;27.23;8.50;;;27.50;97.20;;;;;;1728158;28;20509;-72
2023/06/16 09:09:32;;;;;;;24.53;8.80;;;27.60;97.20;;;;;;1728110;28;20450;-72
2023/06/16 09:10:23;;;;;;;20.40;7.70;;;27.70;97.20;;;;;;1727962;28;20929;-73
2023/06/16 09:11:21;;;;;;;19.40;8.13;;;27.80;97.20;;;;;;1728018;28;20200;-73
2023/06/16 09:12:13;;;;;;;9.73;5.60;;;27.90;97.20;;;;;;1727769;28;20956;-72
2023/06/16 09:13:04;;;;;;;8.57;4.83;;;28.00;97.20;;;;;;1727680;28;20513;-72
2023/06/16 09:13:56;;;;;;;6.07;4.50;;;28.00;97.20;;;;;;1727907;28;20443;-72
2023/06/16 09:14:49;;;;;;;6.67;4.70;;;28.00;97.20;;;;;;1727806;28;20459;-72
2023/06/16 09:15:42;;;;;;;5.00;4.47;;;28.00;97.20;;;;;;1727975;28;20447;-72
2023/06/16 09:16:33;;;;;;;10.63;9.40;;;28.00;97.20;;;;;;1727961;28;20497;-73
2023/06/16 09:17:27;;;;;;;21.43;6.53;;;28.00;97.20;;;;;;1728005;28;20498;-73
2023/06/16 09:18:18;;;;;;;29.90;7.40;;;28.00;97.20;;;;;;1727997;28;20216;-72
2023/06/16 09:19:12;;;;;;;23.87;7.53;;;28.10;97.20;;;;;;1727986;28;20552;-72
2023/06/16 09:20:04;;;;;;;39.50;7.80;;;28.20;97.20;;;;;;1728041;28;20956;-72
2023/06/16 09:21:00;;;;;;;26.27;8.23;;;28.20;97.20;;;;;;1727865;28;20824;-73
2023/06/16 09:21:53;;;;;;;29.20;6.73;;;28.30;97.20;;;;;;1727722;28;20459;-74
2023/06/16 09:22:56;;;;;;;12.03;6.37;;;28.40;97.20;;;;;;1728009;28;20446;-72
2023/06/16 09:23:56;;;;;;;14.80;5.50;;;28.50;97.20;;;;;;1727873;28;21015;-72
2023/06/16 09:24:54;;;;;;;9.60;4.80;;;28.60;97.20;;;;;;1728170;28;20443;-72
2023/06/16 09:25:51;;;;;;;10.27;5.23;;;28.70;97.20;;;;;;1728212;28;20491;-72
2023/06/16 09:26:42;;;;;;;7.00;4.53;;;28.80;97.20;;;;;;1727937;28;20454;-73
2023/06/16 09:27:43;;;;;;;7.23;4.70;;;28.80;97.20;;;;;;1727685;28;20450;-73
2023/06/16 09:28:36;;;;;;;10.90;4.90;;;28.90;97.20;;;;;;1727875;28;20519;-73